Bruk link Alternativ webside om du vil se statistikk,rapport,graf,analyse og mye mer.

Vårt webkamera more information My webcam


webkamera på Randaberg more information webcam on Randaberg


Nedbørsradar  rain snow radar


Besøk vår andre værside:

Alternativ webside

Alternativ mobil

Regnskvett RandabergWebsite of another weatherstation



Ikke nødvendig med spesiell oppmerksomhet.    Det er ingen advarsler

Nære METAR rapporter

   
ENHD - Haugesund
oppdatert: 22-09-2020 11:50
For det meste skyet  
For det meste skyet  
   Vind: SSØ 8.2 m/s
Vind: SSØ 8.2 m/s
Temperatur: 14°C
Duggpunkt: 10°C
Fuktighet: 77%
Barometer: 1004 hPa
Skyer: For det meste skyet
Sikt: More than 10 km
Skydetaljer: få skyer 640.1 m,
Delvis Skyet 1097.3 m,
For det meste skyet 6096 m
ENHD 220950Z AUTO 15016KT 9999 FEW021/// SCT036/// BKN200/// 14/10 Q1004
ENZV - Randaberg
oppdatert: 22-09-2020 11:50
For det meste skyet  
For det meste skyet  
   Vind: SSØ 6.7 m/s
Vind: SSØ 6.7 m/s
Temperatur: 15°C
Duggpunkt: 9°C
Fuktighet: 68%
Barometer: 1005 hPa
Skyer: For det meste skyet
Sikt: More than 10 km
Skydetaljer: få skyer 609.6 m,
For det meste skyet 1066.8 m
ENZV 220950Z 16013KT 9999 FEW020 BKN035 15/09 Q1005 NOSIG
ENBR - Bergen
oppdatert: 22-09-2020 11:50
For det meste skyet  
For det meste skyet  
   Vind: SSØ 6.7 m/s
Vind: SSØ 6.7 m/s
Skyer: For det meste skyet
Sikt: More than 10 km
Skydetaljer: Delvis Skyet 670.6 m,
For det meste skyet 1676.4 m
ENBR 220950Z 15013KT 9999 SCT022 BKN055 12/// Q1003 NOSIG RMK WIND 1200FT 15019KT
ENCN - Kristiansand
oppdatert: 22-09-2020 11:50
For det meste skyet  
For det meste skyet  
   Vind: SV 3.6 m/s
Vind: SV 3.6 m/s
Temperatur: 14°C
Duggpunkt: 8°C
Fuktighet: 67%
Barometer: 1008 hPa
Skyer: For det meste skyet
Sikt: More than 10 km
Skydetaljer: For det meste skyet 883.9 m
ENCN 220950Z 23007KT 9999 BKN029 14/08 Q1008
ENGM - Oslo
oppdatert: 22-09-2020 11:50
Klart  
Klart  
   Vind: SSØ 4.6 m/s
Vind: SSØ 4.6 m/s
Temperatur: 13°C
Duggpunkt: 8°C
Fuktighet: 72%
Barometer: 1005 hPa
Sikt: More than 10 km
Skydetaljer: Klart
ENGM 220950Z 16009KT CAVOK 13/08 Q1005 NOSIG
ENVA - Trondheim
oppdatert: 22-09-2020 11:50
få skyer  
få skyer  
   Vind: Stille
Vind: Stille
Temperatur: 12°C
Duggpunkt: 6°C
Fuktighet: 67%
Barometer: 1004 hPa
Skyer: få skyer
Sikt: More than 10 km
Skydetaljer: få skyer 609.6 m
ENVA 220950Z 00000KT 9999 FEW020 12/06 Q1004 NOSIG RMK WIND 670FT 16004KT

Script utviklet av  Saratoga-weather.org Tilrettelagt for malen av  Weerstation Leuven

Du finner vår vær info også på:

European Weather Network

WeatherCloud

Weather Underground

Citizen Weather Observer Program (CWOP)

Utstyr vi bruker:

Værstsjon
Oregon scientific WMR 300

Værprogram
Meteobridge

Oregon scientific WMR 300

Meteobridge